sensor_id;sensor_type;location;lat;lon;timestamp;P1;durP1;ratioP1;P2;durP2;ratioP2
2934;SDS011;2462;51.456;7.248;2022-11-22T00:00:57;3.10;;;1.80;;
2934;SDS011;2462;51.456;7.248;2022-11-22T00:03:22;3.67;;;1.90;;
2934;SDS011;2462;51.456;7.248;2022-11-22T00:05:48;3.80;;;1.90;;
2934;SDS011;2462;51.456;7.248;2022-11-22T00:08:13;6.40;;;2.27;;
2934;SDS011;2462;51.456;7.248;2022-11-22T00:10:39;5.47;;;1.83;;
2934;SDS011;2462;51.456;7.248;2022-11-22T00:13:04;3.80;;;2.20;;
2934;SDS011;2462;51.456;7.248;2022-11-22T00:15:30;7.00;;;2.10;;
2934;SDS011;2462;51.456;7.248;2022-11-22T00:17:56;4.87;;;1.73;;
2934;SDS011;2462;51.456;7.248;2022-11-22T00:20:21;4.90;;;1.70;;
2934;SDS011;2462;51.456;7.248;2022-11-22T00:22:47;4.10;;;1.90;;
2934;SDS011;2462;51.456;7.248;2022-11-22T00:25:12;4.27;;;2.00;;
2934;SDS011;2462;51.456;7.248;2022-11-22T00:27:38;2.97;;;1.70;;
2934;SDS011;2462;51.456;7.248;2022-11-22T00:30:04;4.70;;;2.25;;
2934;SDS011;2462;51.456;7.248;2022-11-22T00:32:30;5.53;;;1.90;;
2934;SDS011;2462;51.456;7.248;2022-11-22T00:34:56;4.65;;;1.73;;
2934;SDS011;2462;51.456;7.248;2022-11-22T00:37:21;5.97;;;1.90;;
2934;SDS011;2462;51.456;7.248;2022-11-22T00:39:47;3.57;;;1.90;;
2934;SDS011;2462;51.456;7.248;2022-11-22T00:42:12;4.93;;;1.97;;
2934;SDS011;2462;51.456;7.248;2022-11-22T00:44:38;5.20;;;2.53;;
2934;SDS011;2462;51.456;7.248;2022-11-22T00:47:03;3.23;;;2.10;;
2934;SDS011;2462;51.456;7.248;2022-11-22T00:49:29;4.63;;;2.17;;
2934;SDS011;2462;51.456;7.248;2022-11-22T00:51:54;3.20;;;1.80;;
2934;SDS011;2462;51.456;7.248;2022-11-22T00:54:20;4.80;;;1.70;;
2934;SDS011;2462;51.456;7.248;2022-11-22T00:56:45;3.63;;;2.17;;
2934;SDS011;2462;51.456;7.248;2022-11-22T00:59:11;5.33;;;1.80;;
2934;SDS011;2462;51.456;7.248;2022-11-22T01:01:36;3.47;;;1.93;;
2934;SDS011;2462;51.456;7.248;2022-11-22T01:04:02;3.77;;;1.63;;
2934;SDS011;2462;51.456;7.248;2022-11-22T01:06:28;3.70;;;1.90;;
2934;SDS011;2462;51.456;7.248;2022-11-22T01:08:53;4.20;;;1.73;;
2934;SDS011;2462;51.456;7.248;2022-11-22T01:11:19;3.90;;;1.87;;
2934;SDS011;2462;51.456;7.248;2022-11-22T01:13:44;6.13;;;2.10;;
2934;SDS011;2462;51.456;7.248;2022-11-22T01:16:10;4.13;;;1.80;;
2934;SDS011;2462;51.456;7.248;2022-11-22T01:18:40;3.47;;;1.80;;
2934;SDS011;2462;51.456;7.248;2022-11-22T01:21:05;6.70;;;2.40;;
2934;SDS011;2462;51.456;7.248;2022-11-22T01:23:31;4.87;;;2.20;;
2934;SDS011;2462;51.456;7.248;2022-11-22T01:25:57;5.95;;;3.00;;
2934;SDS011;2462;51.456;7.248;2022-11-22T01:28:23;3.87;;;2.00;;
2934;SDS011;2462;51.456;7.248;2022-11-22T01:30:49;5.93;;;2.40;;
2934;SDS011;2462;51.456;7.248;2022-11-22T01:33:16;3.63;;;2.40;;
2934;SDS011;2462;51.456;7.248;2022-11-22T01:35:41;5.50;;;2.50;;
2934;SDS011;2462;51.456;7.248;2022-11-22T01:38:07;4.77;;;2.43;;
2934;SDS011;2462;51.456;7.248;2022-11-22T01:40:33;6.00;;;2.83;;
2934;SDS011;2462;51.456;7.248;2022-11-22T01:42:59;5.88;;;2.47;;
2934;SDS011;2462;51.456;7.248;2022-11-22T01:48:00;5.65;;;2.00;;
2934;SDS011;2462;51.456;7.248;2022-11-22T01:50:35;3.40;;;2.20;;
2934;SDS011;2462;51.456;7.248;2022-11-22T01:53:05;4.75;;;2.20;;
2934;SDS011;2462;51.456;7.248;2022-11-22T01:55:39;4.63;;;2.95;;
2934;SDS011;2462;51.456;7.248;2022-11-22T01:58:06;3.30;;;2.30;;
2934;SDS011;2462;51.456;7.248;2022-11-22T02:00:33;3.70;;;1.77;;
2934;SDS011;2462;51.456;7.248;2022-11-22T02:02:59;4.82;;;2.20;;
2934;SDS011;2462;51.456;7.248;2022-11-22T02:05:29;4.93;;;2.40;;
2934;SDS011;2462;51.456;7.248;2022-11-22T02:10:54;3.63;;;2.00;;
2934;SDS011;2462;51.456;7.248;2022-11-22T02:13:22;5.68;;;2.00;;
2934;SDS011;2462;51.456;7.248;2022-11-22T02:15:49;3.40;;;2.10;;
2934;SDS011;2462;51.456;7.248;2022-11-22T02:18:15;5.55;;;2.00;;
2934;SDS011;2462;51.456;7.248;2022-11-22T02:20:41;4.25;;;2.30;;
2934;SDS011;2462;51.456;7.248;2022-11-22T02:23:12;4.13;;;2.00;;
2934;SDS011;2462;51.456;7.248;2022-11-22T02:25:52;3.13;;;1.90;;
2934;SDS011;2462;51.456;7.248;2022-11-22T02:28:19;4.13;;;2.30;;
2934;SDS011;2462;51.456;7.248;2022-11-22T02:30:44;4.60;;;2.63;;
2934;SDS011;2462;51.456;7.248;2022-11-22T02:33:10;7.53;;;2.60;;
2934;SDS011;2462;51.456;7.248;2022-11-22T02:35:35;3.22;;;2.30;;
2934;SDS011;2462;51.456;7.248;2022-11-22T02:38:09;5.22;;;2.28;;
2934;SDS011;2462;51.456;7.248;2022-11-22T02:40:38;4.65;;;2.50;;
2934;SDS011;2462;51.456;7.248;2022-11-22T02:43:08;4.18;;;2.30;;
2934;SDS011;2462;51.456;7.248;2022-11-22T02:45:37;7.37;;;2.73;;
2934;SDS011;2462;51.456;7.248;2022-11-22T02:48:04;7.90;;;2.40;;
2934;SDS011;2462;51.456;7.248;2022-11-22T02:50:31;4.93;;;2.33;;
2934;SDS011;2462;51.456;7.248;2022-11-22T02:52:56;5.38;;;2.50;;
2934;SDS011;2462;51.456;7.248;2022-11-22T02:55:22;6.47;;;2.53;;
2934;SDS011;2462;51.456;7.248;2022-11-22T02:57:47;5.57;;;2.85;;
2934;SDS011;2462;51.456;7.248;2022-11-22T03:00:13;5.30;;;2.27;;
2934;SDS011;2462;51.456;7.248;2022-11-22T03:02:39;4.80;;;2.40;;
2934;SDS011;2462;51.456;7.248;2022-11-22T03:05:04;7.57;;;2.58;;
2934;SDS011;2462;51.456;7.248;2022-11-22T03:07:30;6.32;;;2.63;;
2934;SDS011;2462;51.456;7.248;2022-11-22T03:09:56;9.43;;;2.70;;
2934;SDS011;2462;51.456;7.248;2022-11-22T03:12:21;6.15;;;3.10;;
2934;SDS011;2462;51.456;7.248;2022-11-22T03:14:47;7.88;;;3.00;;
2934;SDS011;2462;51.456;7.248;2022-11-22T03:17:12;7.18;;;2.90;;
2934;SDS011;2462;51.456;7.248;2022-11-22T03:19:38;7.30;;;2.75;;
2934;SDS011;2462;51.456;7.248;2022-11-22T03:22:03;8.32;;;2.72;;
2934;SDS011;2462;51.456;7.248;2022-11-22T03:24:29;9.60;;;3.43;;
2934;SDS011;2462;51.456;7.248;2022-11-22T03:26:54;7.00;;;2.60;;
2934;SDS011;2462;51.456;7.248;2022-11-22T03:29:20;5.93;;;2.73;;
2934;SDS011;2462;51.456;7.248;2022-11-22T03:31:45;5.90;;;2.50;;
2934;SDS011;2462;51.456;7.248;2022-11-22T03:34:13;7.83;;;2.30;;
2934;SDS011;2462;51.456;7.248;2022-11-22T03:36:39;6.70;;;2.83;;
2934;SDS011;2462;51.456;7.248;2022-11-22T03:39:05;5.65;;;2.60;;
2934;SDS011;2462;51.456;7.248;2022-11-22T03:41:30;6.95;;;2.60;;
2934;SDS011;2462;51.456;7.248;2022-11-22T03:43:56;6.18;;;2.40;;
2934;SDS011;2462;51.456;7.248;2022-11-22T03:46:21;7.15;;;2.65;;
2934;SDS011;2462;51.456;7.248;2022-11-22T03:48:47;8.90;;;3.10;;
2934;SDS011;2462;51.456;7.248;2022-11-22T03:51:12;7.60;;;3.10;;
2934;SDS011;2462;51.456;7.248;2022-11-22T03:53:38;8.52;;;2.70;;
2934;SDS011;2462;51.456;7.248;2022-11-22T03:56:04;7.45;;;2.75;;
2934;SDS011;2462;51.456;7.248;2022-11-22T03:58:30;10.40;;;3.10;;
2934;SDS011;2462;51.456;7.248;2022-11-22T04:00:56;11.35;;;3.22;;
2934;SDS011;2462;51.456;7.248;2022-11-22T04:03:22;11.07;;;3.22;;
2934;SDS011;2462;51.456;7.248;2022-11-22T04:05:47;11.00;;;3.37;;
2934;SDS011;2462;51.456;7.248;2022-11-22T04:08:13;10.07;;;3.30;;
2934;SDS011;2462;51.456;7.248;2022-11-22T04:10:39;10.77;;;3.10;;
2934;SDS011;2462;51.456;7.248;2022-11-22T04:13:04;6.78;;;2.67;;
2934;SDS011;2462;51.456;7.248;2022-11-22T04:15:30;8.63;;;2.30;;
2934;SDS011;2462;51.456;7.248;2022-11-22T04:17:55;10.23;;;2.70;;
2934;SDS011;2462;51.456;7.248;2022-11-22T04:20:22;7.00;;;2.80;;
2934;SDS011;2462;51.456;7.248;2022-11-22T04:23:12;10.02;;;3.20;;
2934;SDS011;2462;51.456;7.248;2022-11-22T04:25:43;9.70;;;2.90;;
2934;SDS011;2462;51.456;7.248;2022-11-22T04:28:10;8.85;;;2.60;;
2934;SDS011;2462;51.456;7.248;2022-11-22T04:30:36;11.95;;;3.05;;
2934;SDS011;2462;51.456;7.248;2022-11-22T04:33:20;8.95;;;2.97;;
2934;SDS011;2462;51.456;7.248;2022-11-22T04:35:47;5.65;;;2.38;;
2934;SDS011;2462;51.456;7.248;2022-11-22T04:38:13;11.40;;;2.50;;
2934;SDS011;2462;51.456;7.248;2022-11-22T04:40:40;15.10;;;3.17;;
2934;SDS011;2462;51.456;7.248;2022-11-22T04:43:06;13.17;;;2.90;;
2934;SDS011;2462;51.456;7.248;2022-11-22T04:45:52;9.43;;;2.50;;
2934;SDS011;2462;51.456;7.248;2022-11-22T04:48:18;8.10;;;2.80;;
2934;SDS011;2462;51.456;7.248;2022-11-22T04:50:44;11.70;;;3.50;;
2934;SDS011;2462;51.456;7.248;2022-11-22T04:53:28;7.70;;;2.28;;
2934;SDS011;2462;51.456;7.248;2022-11-22T04:55:54;6.05;;;2.45;;
2934;SDS011;2462;51.456;7.248;2022-11-22T04:58:20;7.85;;;2.30;;
2934;SDS011;2462;51.456;7.248;2022-11-22T05:00:46;8.03;;;2.23;;
2934;SDS011;2462;51.456;7.248;2022-11-22T05:03:12;6.65;;;2.30;;
2934;SDS011;2462;51.456;7.248;2022-11-22T05:05:38;8.32;;;2.60;;
2934;SDS011;2462;51.456;7.248;2022-11-22T05:08:06;6.20;;;2.57;;
2934;SDS011;2462;51.456;7.248;2022-11-22T05:10:33;8.05;;;2.58;;
2934;SDS011;2462;51.456;7.248;2022-11-22T05:13:18;11.65;;;2.33;;
2934;SDS011;2462;51.456;7.248;2022-11-22T05:15:45;10.50;;;3.25;;
2934;SDS011;2462;51.456;7.248;2022-11-22T05:18:10;5.78;;;2.15;;
2934;SDS011;2462;51.456;7.248;2022-11-22T05:20:36;6.95;;;2.20;;
2934;SDS011;2462;51.456;7.248;2022-11-22T05:23:01;11.75;;;3.15;;
2934;SDS011;2462;51.456;7.248;2022-11-22T05:25:46;9.90;;;2.40;;
2934;SDS011;2462;51.456;7.248;2022-11-22T05:28:12;9.90;;;2.40;;
2934;SDS011;2462;51.456;7.248;2022-11-22T05:30:38;16.70;;;2.90;;
2934;SDS011;2462;51.456;7.248;2022-11-22T05:33:04;8.65;;;2.30;;
2934;SDS011;2462;51.456;7.248;2022-11-22T05:35:29;6.53;;;2.38;;
2934;SDS011;2462;51.456;7.248;2022-11-22T05:37:58;8.40;;;2.30;;
2934;SDS011;2462;51.456;7.248;2022-11-22T05:40:24;10.70;;;2.47;;
2934;SDS011;2462;51.456;7.248;2022-11-22T05:42:50;9.32;;;3.13;;
2934;SDS011;2462;51.456;7.248;2022-11-22T05:45:16;9.13;;;2.40;;
2934;SDS011;2462;51.456;7.248;2022-11-22T05:47:42;12.30;;;2.80;;
2934;SDS011;2462;51.456;7.248;2022-11-22T05:50:07;7.27;;;2.10;;
2934;SDS011;2462;51.456;7.248;2022-11-22T05:52:33;7.87;;;2.00;;
2934;SDS011;2462;51.456;7.248;2022-11-22T05:54:59;7.40;;;2.67;;
2934;SDS011;2462;51.456;7.248;2022-11-22T05:57:25;10.57;;;3.30;;
2934;SDS011;2462;51.456;7.248;2022-11-22T05:59:51;7.57;;;2.23;;
2934;SDS011;2462;51.456;7.248;2022-11-22T06:02:16;7.77;;;2.07;;
2934;SDS011;2462;51.456;7.248;2022-11-22T06:04:42;8.23;;;2.70;;
2934;SDS011;2462;51.456;7.248;2022-11-22T06:07:08;8.90;;;3.00;;
2934;SDS011;2462;51.456;7.248;2022-11-22T06:09:33;8.60;;;2.67;;
2934;SDS011;2462;51.456;7.248;2022-11-22T06:11:59;7.97;;;2.30;;
2934;SDS011;2462;51.456;7.248;2022-11-22T06:14:25;10.00;;;2.40;;
2934;SDS011;2462;51.456;7.248;2022-11-22T06:16:50;13.02;;;2.63;;
2934;SDS011;2462;51.456;7.248;2022-11-22T06:19:16;11.27;;;3.10;;
2934;SDS011;2462;51.456;7.248;2022-11-22T06:21:41;8.35;;;2.40;;
2934;SDS011;2462;51.456;7.248;2022-11-22T06:24:07;7.53;;;2.20;;
2934;SDS011;2462;51.456;7.248;2022-11-22T06:26:33;11.10;;;2.92;;
2934;SDS011;2462;51.456;7.248;2022-11-22T06:28:59;10.88;;;2.50;;
2934;SDS011;2462;51.456;7.248;2022-11-22T06:31:25;8.90;;;2.20;;
2934;SDS011;2462;51.456;7.248;2022-11-22T06:33:52;13.45;;;2.80;;
2934;SDS011;2462;51.456;7.248;2022-11-22T06:36:20;9.30;;;1.95;;
2934;SDS011;2462;51.456;7.248;2022-11-22T06:38:47;10.98;;;2.53;;
2934;SDS011;2462;51.456;7.248;2022-11-22T06:41:15;9.63;;;2.50;;
2934;SDS011;2462;51.456;7.248;2022-11-22T06:43:45;11.90;;;2.40;;
2934;SDS011;2462;51.456;7.248;2022-11-22T06:46:12;7.35;;;2.13;;
2934;SDS011;2462;51.456;7.248;2022-11-22T06:48:38;7.82;;;2.25;;
2934;SDS011;2462;51.456;7.248;2022-11-22T06:51:06;9.52;;;2.10;;
2934;SDS011;2462;51.456;7.248;2022-11-22T06:53:32;6.90;;;2.13;;
2934;SDS011;2462;51.456;7.248;2022-11-22T06:56:02;10.52;;;2.15;;
2934;SDS011;2462;51.456;7.248;2022-11-22T06:58:33;9.30;;;2.50;;
2934;SDS011;2462;51.456;7.248;2022-11-22T07:01:03;10.68;;;2.83;;
2934;SDS011;2462;51.456;7.248;2022-11-22T07:03:30;13.73;;;2.70;;
2934;SDS011;2462;51.456;7.248;2022-11-22T07:05:56;14.88;;;2.90;;
2934;SDS011;2462;51.456;7.248;2022-11-22T07:08:22;7.97;;;2.20;;
2934;SDS011;2462;51.456;7.248;2022-11-22T07:10:48;8.88;;;2.50;;
2934;SDS011;2462;51.456;7.248;2022-11-22T07:13:13;7.25;;;2.60;;
2934;SDS011;2462;51.456;7.248;2022-11-22T07:15:39;6.57;;;2.40;;
2934;SDS011;2462;51.456;7.248;2022-11-22T07:18:06;7.32;;;2.50;;
2934;SDS011;2462;51.456;7.248;2022-11-22T07:20:31;10.80;;;2.40;;
2934;SDS011;2462;51.456;7.248;2022-11-22T07:22:57;10.43;;;2.53;;
2934;SDS011;2462;51.456;7.248;2022-11-22T07:25:23;11.60;;;3.30;;
2934;SDS011;2462;51.456;7.248;2022-11-22T07:27:50;9.97;;;3.10;;
2934;SDS011;2462;51.456;7.248;2022-11-22T07:30:16;6.88;;;2.25;;
2934;SDS011;2462;51.456;7.248;2022-11-22T07:32:45;7.63;;;2.60;;
2934;SDS011;2462;51.456;7.248;2022-11-22T07:35:11;6.03;;;2.47;;
2934;SDS011;2462;51.456;7.248;2022-11-22T07:37:37;9.85;;;2.85;;
2934;SDS011;2462;51.456;7.248;2022-11-22T07:40:02;12.95;;;2.40;;
2934;SDS011;2462;51.456;7.248;2022-11-22T07:42:28;10.07;;;2.70;;
2934;SDS011;2462;51.456;7.248;2022-11-22T07:44:54;8.00;;;2.90;;
2934;SDS011;2462;51.456;7.248;2022-11-22T07:47:19;12.33;;;3.20;;
2934;SDS011;2462;51.456;7.248;2022-11-22T07:49:45;7.80;;;2.97;;
2934;SDS011;2462;51.456;7.248;2022-11-22T07:52:10;14.60;;;3.90;;
2934;SDS011;2462;51.456;7.248;2022-11-22T07:54:36;8.70;;;2.53;;
2934;SDS011;2462;51.456;7.248;2022-11-22T07:57:02;9.45;;;2.90;;
2934;SDS011;2462;51.456;7.248;2022-11-22T07:59:28;10.05;;;2.70;;
2934;SDS011;2462;51.456;7.248;2022-11-22T08:01:53;13.77;;;2.85;;
2934;SDS011;2462;51.456;7.248;2022-11-22T08:04:19;8.13;;;3.20;;
2934;SDS011;2462;51.456;7.248;2022-11-22T08:06:44;12.48;;;2.92;;
2934;SDS011;2462;51.456;7.248;2022-11-22T08:09:10;6.43;;;3.15;;
2934;SDS011;2462;51.456;7.248;2022-11-22T08:11:35;9.27;;;2.72;;
2934;SDS011;2462;51.456;7.248;2022-11-22T08:14:01;7.93;;;2.53;;
2934;SDS011;2462;51.456;7.248;2022-11-22T08:16:27;10.32;;;2.80;;
2934;SDS011;2462;51.456;7.248;2022-11-22T08:18:52;7.63;;;2.90;;
2934;SDS011;2462;51.456;7.248;2022-11-22T08:21:18;10.40;;;2.80;;
2934;SDS011;2462;51.456;7.248;2022-11-22T08:23:44;11.10;;;2.50;;
2934;SDS011;2462;51.456;7.248;2022-11-22T08:26:11;8.13;;;2.30;;
2934;SDS011;2462;51.456;7.248;2022-11-22T08:28:39;7.68;;;2.70;;
2934;SDS011;2462;51.456;7.248;2022-11-22T08:31:07;8.55;;;2.40;;
2934;SDS011;2462;51.456;7.248;2022-11-22T08:33:34;12.13;;;2.90;;
2934;SDS011;2462;51.456;7.248;2022-11-22T08:36:00;9.63;;;2.83;;
2934;SDS011;2462;51.456;7.248;2022-11-22T08:38:26;10.20;;;2.72;;
2934;SDS011;2462;51.456;7.248;2022-11-22T08:40:51;9.70;;;2.70;;
2934;SDS011;2462;51.456;7.248;2022-11-22T08:43:17;7.70;;;2.60;;
2934;SDS011;2462;51.456;7.248;2022-11-22T08:45:42;12.07;;;3.37;;
2934;SDS011;2462;51.456;7.248;2022-11-22T08:48:08;9.57;;;2.80;;
2934;SDS011;2462;51.456;7.248;2022-11-22T08:50:34;10.30;;;2.60;;
2934;SDS011;2462;51.456;7.248;2022-11-22T08:52:59;10.87;;;2.67;;
2934;SDS011;2462;51.456;7.248;2022-11-22T08:55:25;9.27;;;3.30;;
2934;SDS011;2462;51.456;7.248;2022-11-22T08:57:51;7.50;;;2.33;;
2934;SDS011;2462;51.456;7.248;2022-11-22T09:00:17;8.33;;;2.97;;
2934;SDS011;2462;51.456;7.248;2022-11-22T09:02:42;9.07;;;2.20;;
2934;SDS011;2462;51.456;7.248;2022-11-22T09:05:08;7.97;;;2.33;;
2934;SDS011;2462;51.456;7.248;2022-11-22T09:07:34;8.73;;;2.63;;
2934;SDS011;2462;51.456;7.248;2022-11-22T09:09:59;7.68;;;2.10;;
2934;SDS011;2462;51.456;7.248;2022-11-22T09:12:25;9.10;;;2.30;;
2934;SDS011;2462;51.456;7.248;2022-11-22T09:14:51;9.20;;;1.83;;
2934;SDS011;2462;51.456;7.248;2022-11-22T09:17:16;5.18;;;2.08;;
2934;SDS011;2462;51.456;7.248;2022-11-22T09:19:42;6.73;;;2.00;;
2934;SDS011;2462;51.456;7.248;2022-11-22T09:22:08;6.70;;;2.30;;
2934;SDS011;2462;51.456;7.248;2022-11-22T09:24:33;7.20;;;2.20;;
2934;SDS011;2462;51.456;7.248;2022-11-22T09:26:59;5.70;;;2.20;;
2934;SDS011;2462;51.456;7.248;2022-11-22T09:29:24;6.30;;;2.07;;
2934;SDS011;2462;51.456;7.248;2022-11-22T09:31:50;6.27;;;2.13;;
2934;SDS011;2462;51.456;7.248;2022-11-22T09:34:16;9.70;;;2.63;;
2934;SDS011;2462;51.456;7.248;2022-11-22T09:36:42;7.22;;;2.30;;
2934;SDS011;2462;51.456;7.248;2022-11-22T09:39:08;9.47;;;1.90;;
2934;SDS011;2462;51.456;7.248;2022-11-22T09:44:44;6.80;;;2.03;;
2934;SDS011;2462;51.456;7.248;2022-11-22T09:47:40;6.13;;;1.83;;
2934;SDS011;2462;51.456;7.248;2022-11-22T09:55:46;7.15;;;2.17;;
2934;SDS011;2462;51.456;7.248;2022-11-22T09:58:27;5.20;;;1.80;;
2934;SDS011;2462;51.456;7.248;2022-11-22T10:01:22;5.05;;;1.90;;
2934;SDS011;2462;51.456;7.248;2022-11-22T10:03:55;5.90;;;2.20;;
2934;SDS011;2462;51.456;7.248;2022-11-22T10:06:34;3.50;;;1.60;;
2934;SDS011;2462;51.456;7.248;2022-11-22T10:12:01;4.35;;;1.80;;
2934;SDS011;2462;51.456;7.248;2022-11-22T10:22:20;5.70;;;1.90;;
2934;SDS011;2462;51.456;7.248;2022-11-22T10:24:46;6.10;;;2.10;;
2934;SDS011;2462;51.456;7.248;2022-11-22T10:27:14;9.47;;;2.00;;
2934;SDS011;2462;51.456;7.248;2022-11-22T10:32:28;6.43;;;2.10;;
2934;SDS011;2462;51.456;7.248;2022-11-22T10:48:00;8.75;;;2.50;;
2934;SDS011;2462;51.456;7.248;2022-11-22T10:53:50;7.20;;;2.00;;
2934;SDS011;2462;51.456;7.248;2022-11-22T11:04:51;23.63;;;14.20;;
2934;SDS011;2462;51.456;7.248;2022-11-22T11:07:20;15.20;;;8.63;;
2934;SDS011;2462;51.456;7.248;2022-11-22T11:09:54;15.60;;;6.30;;
2934;SDS011;2462;51.456;7.248;2022-11-22T11:12:26;11.90;;;3.95;;
2934;SDS011;2462;51.456;7.248;2022-11-22T11:15:17;5.78;;;2.35;;
2934;SDS011;2462;51.456;7.248;2022-11-22T11:17:48;4.43;;;2.20;;
2934;SDS011;2462;51.456;7.248;2022-11-22T11:20:21;4.88;;;2.10;;
2934;SDS011;2462;51.456;7.248;2022-11-22T11:22:50;8.57;;;2.00;;
2934;SDS011;2462;51.456;7.248;2022-11-22T11:25:26;4.53;;;1.80;;
2934;SDS011;2462;51.456;7.248;2022-11-22T11:27:52;6.53;;;1.80;;
2934;SDS011;2462;51.456;7.248;2022-11-22T11:30:18;7.20;;;1.70;;
2934;SDS011;2462;51.456;7.248;2022-11-22T11:32:50;4.93;;;2.00;;
2934;SDS011;2462;51.456;7.248;2022-11-22T11:35:21;7.43;;;1.85;;
2934;SDS011;2462;51.456;7.248;2022-11-22T11:37:48;4.88;;;1.70;;
2934;SDS011;2462;51.456;7.248;2022-11-22T11:40:27;4.43;;;1.87;;
2934;SDS011;2462;51.456;7.248;2022-11-22T11:43:14;4.78;;;1.70;;
2934;SDS011;2462;51.456;7.248;2022-11-22T11:45:44;6.78;;;1.85;;
2934;SDS011;2462;51.456;7.248;2022-11-22T11:48:26;9.00;;;2.00;;
2934;SDS011;2462;51.456;7.248;2022-11-22T11:53:56;7.40;;;1.73;;
2934;SDS011;2462;51.456;7.248;2022-11-22T11:59:16;7.57;;;1.50;;
2934;SDS011;2462;51.456;7.248;2022-11-22T12:04:49;7.30;;;1.50;;
2934;SDS011;2462;51.456;7.248;2022-11-22T12:07:18;5.20;;;1.70;;
2934;SDS011;2462;51.456;7.248;2022-11-22T12:09:47;4.10;;;1.50;;
2934;SDS011;2462;51.456;7.248;2022-11-22T12:12:16;5.90;;;1.70;;
2934;SDS011;2462;51.456;7.248;2022-11-22T12:14:56;4.30;;;1.35;;
2934;SDS011;2462;51.456;7.248;2022-11-22T12:17:29;4.47;;;1.30;;
2934;SDS011;2462;51.456;7.248;2022-11-22T12:20:00;4.80;;;1.50;;
2934;SDS011;2462;51.456;7.248;2022-11-22T12:22:54;5.00;;;1.60;;
2934;SDS011;2462;51.456;7.248;2022-11-22T12:25:38;4.30;;;1.27;;
2934;SDS011;2462;51.456;7.248;2022-11-22T12:28:11;3.20;;;1.20;;
2934;SDS011;2462;51.456;7.248;2022-11-22T12:30:48;4.57;;;1.50;;
2934;SDS011;2462;51.456;7.248;2022-11-22T12:33:19;4.32;;;1.30;;
2934;SDS011;2462;51.456;7.248;2022-11-22T12:35:52;3.83;;;1.50;;
2934;SDS011;2462;51.456;7.248;2022-11-22T12:38:22;3.03;;;1.50;;
2934;SDS011;2462;51.456;7.248;2022-11-22T12:41:02;4.88;;;1.33;;
2934;SDS011;2462;51.456;7.248;2022-11-22T12:43:43;6.95;;;1.90;;
2934;SDS011;2462;51.456;7.248;2022-11-22T12:46:22;5.55;;;3.70;;
2934;SDS011;2462;51.456;7.248;2022-11-22T12:49:06;29.58;;;18.00;;
2934;SDS011;2462;51.456;7.248;2022-11-22T12:51:49;12.27;;;7.75;;
2934;SDS011;2462;51.456;7.248;2022-11-22T12:54:21;8.48;;;4.10;;
2934;SDS011;2462;51.456;7.248;2022-11-22T12:56:54;5.22;;;2.50;;
2934;SDS011;2462;51.456;7.248;2022-11-22T13:02:33;2.97;;;1.30;;
2934;SDS011;2462;51.456;7.248;2022-11-22T13:05:28;4.32;;;1.20;;
2934;SDS011;2462;51.456;7.248;2022-11-22T13:10:41;4.63;;;1.20;;
2934;SDS011;2462;51.456;7.248;2022-11-22T13:13:12;3.37;;;1.40;;
2934;SDS011;2462;51.456;7.248;2022-11-22T13:15:46;4.13;;;1.10;;
2934;SDS011;2462;51.456;7.248;2022-11-22T13:18:15;2.92;;;1.15;;
2934;SDS011;2462;51.456;7.248;2022-11-22T13:20:44;3.47;;;1.10;;
2934;SDS011;2462;51.456;7.248;2022-11-22T13:29:09;4.15;;;1.35;;
2934;SDS011;2462;51.456;7.248;2022-11-22T13:34:37;4.72;;;1.65;;
2934;SDS011;2462;51.456;7.248;2022-11-22T13:37:09;4.63;;;1.20;;
2934;SDS011;2462;51.456;7.248;2022-11-22T13:39:47;2.58;;;1.20;;
2934;SDS011;2462;51.456;7.248;2022-11-22T13:42:16;4.30;;;1.20;;
2934;SDS011;2462;51.456;7.248;2022-11-22T13:49:47;4.32;;;1.17;;
2934;SDS011;2462;51.456;7.248;2022-11-22T13:54:41;4.80;;;1.50;;
2934;SDS011;2462;51.456;7.248;2022-11-22T13:57:33;4.20;;;1.20;;
2934;SDS011;2462;51.456;7.248;2022-11-22T14:02:38;3.25;;;1.30;;
2934;SDS011;2462;51.456;7.248;2022-11-22T14:05:17;2.85;;;1.10;;
2934;SDS011;2462;51.456;7.248;2022-11-22T14:07:49;2.40;;;1.00;;
2934;SDS011;2462;51.456;7.248;2022-11-22T14:13:06;3.20;;;1.20;;
2934;SDS011;2462;51.456;7.248;2022-11-22T14:15:55;2.47;;;1.10;;
2934;SDS011;2462;51.456;7.248;2022-11-22T14:24:09;4.35;;;1.40;;
2934;SDS011;2462;51.456;7.248;2022-11-22T14:29:38;3.30;;;1.17;;
2934;SDS011;2462;51.456;7.248;2022-11-22T14:32:21;4.32;;;1.33;;
2934;SDS011;2462;51.456;7.248;2022-11-22T14:47:41;4.60;;;1.10;;
2934;SDS011;2462;51.456;7.248;2022-11-22T14:52:56;3.45;;;1.50;;
2934;SDS011;2462;51.456;7.248;2022-11-22T14:55:24;2.90;;;1.23;;
2934;SDS011;2462;51.456;7.248;2022-11-22T14:57:56;3.85;;;1.20;;
2934;SDS011;2462;51.456;7.248;2022-11-22T15:00:24;4.90;;;1.35;;
2934;SDS011;2462;51.456;7.248;2022-11-22T15:03:06;2.40;;;1.30;;
2934;SDS011;2462;51.456;7.248;2022-11-22T15:13:52;10.20;;;6.60;;
2934;SDS011;2462;51.456;7.248;2022-11-22T15:16:39;6.93;;;3.65;;
2934;SDS011;2462;51.456;7.248;2022-11-22T15:19:29;4.83;;;2.43;;
2934;SDS011;2462;51.456;7.248;2022-11-22T15:22:03;4.45;;;2.28;;
2934;SDS011;2462;51.456;7.248;2022-11-22T15:24:39;4.15;;;1.80;;
2934;SDS011;2462;51.456;7.248;2022-11-22T15:32:43;2.10;;;1.20;;
2934;SDS011;2462;51.456;7.248;2022-11-22T15:35:17;3.13;;;1.20;;
2934;SDS011;2462;51.456;7.248;2022-11-22T15:37:51;3.27;;;1.53;;
2934;SDS011;2462;51.456;7.248;2022-11-22T15:40:19;3.90;;;1.20;;
2934;SDS011;2462;51.456;7.248;2022-11-22T15:42:54;3.27;;;1.47;;
2934;SDS011;2462;51.456;7.248;2022-11-22T15:45:22;2.40;;;1.08;;
2934;SDS011;2462;51.456;7.248;2022-11-22T15:48:09;2.38;;;1.30;;
2934;SDS011;2462;51.456;7.248;2022-11-22T15:50:36;3.28;;;1.10;;
2934;SDS011;2462;51.456;7.248;2022-11-22T15:53:18;2.40;;;1.35;;
2934;SDS011;2462;51.456;7.248;2022-11-22T15:56:07;2.70;;;1.30;;
2934;SDS011;2462;51.456;7.248;2022-11-22T15:58:45;2.40;;;1.20;;
2934;SDS011;2462;51.456;7.248;2022-11-22T16:01:16;1.88;;;1.20;;
2934;SDS011;2462;51.456;7.248;2022-11-22T16:03:43;3.50;;;1.48;;
2934;SDS011;2462;51.456;7.248;2022-11-22T16:06:14;5.00;;;1.20;;
2934;SDS011;2462;51.456;7.248;2022-11-22T16:08:49;3.80;;;1.30;;
2934;SDS011;2462;51.456;7.248;2022-11-22T16:11:23;3.50;;;1.10;;
2934;SDS011;2462;51.456;7.248;2022-11-22T16:13:55;2.65;;;1.00;;
2934;SDS011;2462;51.456;7.248;2022-11-22T16:16:28;2.45;;;1.30;;
2934;SDS011;2462;51.456;7.248;2022-11-22T16:22:00;1.55;;;0.90;;
2934;SDS011;2462;51.456;7.248;2022-11-22T16:24:26;2.50;;;1.10;;
2934;SDS011;2462;51.456;7.248;2022-11-22T16:26:54;1.50;;;1.00;;
2934;SDS011;2462;51.456;7.248;2022-11-22T16:29:25;3.55;;;1.10;;
2934;SDS011;2462;51.456;7.248;2022-11-22T16:31:59;2.60;;;1.20;;
2934;SDS011;2462;51.456;7.248;2022-11-22T16:34:29;1.80;;;1.10;;
2934;SDS011;2462;51.456;7.248;2022-11-22T16:36:54;3.72;;;1.13;;
2934;SDS011;2462;51.456;7.248;2022-11-22T16:39:20;2.20;;;1.20;;
2934;SDS011;2462;51.456;7.248;2022-11-22T16:41:46;3.13;;;1.40;;
2934;SDS011;2462;51.456;7.248;2022-11-22T16:44:12;2.70;;;1.37;;
2934;SDS011;2462;51.456;7.248;2022-11-22T16:46:40;2.20;;;1.30;;
2934;SDS011;2462;51.456;7.248;2022-11-22T16:49:14;2.60;;;1.03;;
2934;SDS011;2462;51.456;7.248;2022-11-22T16:51:44;3.63;;;1.40;;
2934;SDS011;2462;51.456;7.248;2022-11-22T16:54:12;3.10;;;1.20;;
2934;SDS011;2462;51.456;7.248;2022-11-22T16:56:40;2.20;;;1.30;;
2934;SDS011;2462;51.456;7.248;2022-11-22T16:59:07;2.25;;;1.60;;
2934;SDS011;2462;51.456;7.248;2022-11-22T17:01:35;1.98;;;1.30;;
2934;SDS011;2462;51.456;7.248;2022-11-22T17:04:01;2.40;;;1.40;;
2934;SDS011;2462;51.456;7.248;2022-11-22T17:06:27;2.50;;;1.20;;
2934;SDS011;2462;51.456;7.248;2022-11-22T17:08:55;1.60;;;1.20;;
2934;SDS011;2462;51.456;7.248;2022-11-22T17:11:22;1.60;;;1.20;;
2934;SDS011;2462;51.456;7.248;2022-11-22T17:13:49;2.10;;;1.20;;
2934;SDS011;2462;51.456;7.248;2022-11-22T17:16:15;3.30;;;1.50;;
2934;SDS011;2462;51.456;7.248;2022-11-22T17:18:44;2.20;;;1.30;;
2934;SDS011;2462;51.456;7.248;2022-11-22T17:21:24;1.77;;;1.15;;
2934;SDS011;2462;51.456;7.248;2022-11-22T17:23:54;2.42;;;1.27;;
2934;SDS011;2462;51.456;7.248;2022-11-22T17:26:25;1.80;;;1.33;;
2934;SDS011;2462;51.456;7.248;2022-11-22T17:28:51;1.83;;;1.45;;
2934;SDS011;2462;51.456;7.248;2022-11-22T17:31:18;2.90;;;1.30;;
2934;SDS011;2462;51.456;7.248;2022-11-22T17:33:53;4.50;;;1.80;;